Arcadia, Iowa
Current Conditions -  °F | °C
As of 11:15 PM on Tuesday 25 Nov 2014 (Local Time) from KCIN Reporting Station
Unknown Precip Unknown Precip  
Wind Chill: -6°   Ceiling: 400
Heat Index:   Visibility: 1.7mi
Dew Point: -4°   Wind: 14mph
Humidity: 75%   Direction: 170°S
Pressure: 29.91"   Gusts: 21mph
Location:  42.09°N, 95.05°W
Report Text: KCIN 260515Z AUTO 17012G18KT 1 3/4SM -UP BKN004 OVC024 M00/M04 A2991 RMK AO2
Loading
Personal Weather Stations






























Interactive Weather Map New forecast layout! Learn more

10-Day Weather Forecast

Advertisements
Track Severe Weather on mobile